createdAt,value
2023-04-27T00:01:13.577Z,5.60
2023-04-27T00:03:40.215Z,5.50
2023-04-27T00:06:06.799Z,7.13
2023-04-27T00:08:34.398Z,5.30
2023-04-27T00:11:00.824Z,6.95
2023-04-27T00:13:27.792Z,7.22
2023-04-27T00:15:55.984Z,6.50
2023-04-27T00:18:22.776Z,5.60
2023-04-27T00:20:49.132Z,5.70
2023-04-27T00:23:15.433Z,8.02
2023-04-27T00:25:41.742Z,6.55
2023-04-27T00:28:08.041Z,6.55
2023-04-27T00:30:34.395Z,6.78
2023-04-27T00:33:00.900Z,7.47
2023-04-27T00:35:27.337Z,7.68
2023-04-27T00:37:54.227Z,6.20
2023-04-27T00:40:20.583Z,7.05
2023-04-27T00:42:47.050Z,6.20
2023-04-27T00:45:13.534Z,7.10
2023-04-27T00:47:40.136Z,6.32
2023-04-27T00:50:06.843Z,6.68
2023-04-27T00:52:33.450Z,7.38
2023-04-27T00:54:59.826Z,6.05
2023-04-27T00:57:26.128Z,6.68
2023-04-27T00:59:52.519Z,6.88
2023-04-27T01:02:19.234Z,8.20
2023-04-27T01:04:46.565Z,6.07
2023-04-27T01:07:13.406Z,5.93
2023-04-27T01:09:40.311Z,6.85
2023-04-27T01:12:07.057Z,5.80
2023-04-27T01:14:33.987Z,6.10
2023-04-27T01:17:00.608Z,6.13
2023-04-27T01:19:27.718Z,6.25
2023-04-27T01:21:54.430Z,5.97
2023-04-27T01:24:21.000Z,8.95
2023-04-27T01:26:47.615Z,6.47
2023-04-27T01:29:14.606Z,7.28
2023-04-27T01:31:41.407Z,6.35
2023-04-27T01:34:08.068Z,6.95
2023-04-27T01:36:34.607Z,6.43
2023-04-27T01:39:01.415Z,6.18
2023-04-27T01:41:27.791Z,7.32
2023-04-27T01:43:54.189Z,5.78
2023-04-27T01:46:20.749Z,6.88
2023-04-27T01:48:47.017Z,7.18
2023-04-27T01:51:13.382Z,6.22
2023-04-27T01:53:39.932Z,6.22
2023-04-27T01:56:06.178Z,7.97
2023-04-27T01:58:32.583Z,7.22
2023-04-27T02:00:58.855Z,7.07
2023-04-27T02:03:25.494Z,6.57
2023-04-27T02:05:53.506Z,5.88
2023-04-27T02:08:19.816Z,6.63
2023-04-27T02:10:46.681Z,6.35
2023-04-27T02:13:13.129Z,7.03
2023-04-27T02:15:39.587Z,8.05
2023-04-27T02:18:06.239Z,7.30
2023-04-27T02:20:32.780Z,6.78
2023-04-27T02:22:59.508Z,7.72
2023-04-27T02:25:26.231Z,6.68
2023-04-27T02:27:53.054Z,6.65
2023-04-27T02:30:19.999Z,6.40
2023-04-27T02:32:47.273Z,6.65
2023-04-27T02:35:13.691Z,7.32
2023-04-27T02:37:39.992Z,5.60
2023-04-27T02:40:06.349Z,6.35
2023-04-27T02:42:33.246Z,6.13
2023-04-27T02:44:59.624Z,6.00
2023-04-27T02:47:26.135Z,5.28
2023-04-27T02:49:53.018Z,8.35
2023-04-27T02:52:19.333Z,5.88
2023-04-27T02:54:45.660Z,7.70
2023-04-27T02:57:12.053Z,5.47
2023-04-27T02:59:38.521Z,6.85
2023-04-27T03:02:04.942Z,6.20
2023-04-27T03:04:31.567Z,6.93
2023-04-27T03:06:58.868Z,6.57
2023-04-27T03:09:25.487Z,5.45
2023-04-27T03:11:51.949Z,6.75
2023-04-27T03:14:18.309Z,5.88
2023-04-27T03:16:44.693Z,5.60
2023-04-27T03:19:11.349Z,6.50
2023-04-27T03:21:38.016Z,7.40
2023-04-27T03:24:04.539Z,5.85
2023-04-27T03:26:31.428Z,6.18
2023-04-27T03:28:57.830Z,5.97
2023-04-27T03:31:24.208Z,7.38
2023-04-27T03:33:50.767Z,6.80
2023-04-27T03:36:17.310Z,5.97
2023-04-27T03:38:43.661Z,6.65
2023-04-27T03:41:09.978Z,7.28
2023-04-27T03:43:36.452Z,5.18
2023-04-27T03:46:03.493Z,5.30
2023-04-27T03:48:29.773Z,7.30
2023-04-27T03:50:56.176Z,5.95
2023-04-27T03:53:22.533Z,5.68
2023-04-27T03:55:48.914Z,6.00
2023-04-27T03:58:15.197Z,6.13
2023-04-27T04:00:41.586Z,5.57
2023-04-27T04:03:08.763Z,5.32
2023-04-27T04:05:35.515Z,6.15
2023-04-27T04:08:02.085Z,5.63
2023-04-27T04:10:28.356Z,7.43
2023-04-27T04:12:54.808Z,7.13
2023-04-27T04:15:21.512Z,5.50
2023-04-27T04:17:47.855Z,4.88
2023-04-27T04:20:14.356Z,6.45
2023-04-27T04:22:40.605Z,6.82
2023-04-27T04:25:07.008Z,6.32
2023-04-27T04:27:33.675Z,8.15
2023-04-27T04:30:01.383Z,5.75
2023-04-27T04:32:28.279Z,5.70
2023-04-27T04:34:54.845Z,5.60
2023-04-27T04:37:22.014Z,5.80
2023-04-27T04:39:48.431Z,7.30
2023-04-27T04:42:15.855Z,4.78
2023-04-27T04:44:42.204Z,6.28
2023-04-27T04:47:08.475Z,6.22
2023-04-27T04:49:34.993Z,6.05
2023-04-27T04:52:01.371Z,6.30
2023-04-27T04:54:27.910Z,6.95
2023-04-27T04:56:54.215Z,5.13
2023-04-27T04:59:20.554Z,5.88
2023-04-27T05:01:46.995Z,9.93
2023-04-27T05:04:13.802Z,6.03
2023-04-27T05:06:40.363Z,4.80
2023-04-27T05:09:07.247Z,5.57
2023-04-27T05:11:33.557Z,5.50
2023-04-27T05:13:59.926Z,5.15
2023-04-27T05:16:26.614Z,5.90
2023-04-27T05:18:53.137Z,5.82
2023-04-27T05:21:19.620Z,6.65
2023-04-27T05:23:46.100Z,6.75
2023-04-27T05:26:12.661Z,6.18
2023-04-27T05:28:39.215Z,6.00
2023-04-27T05:31:05.692Z,7.03
2023-04-27T05:33:31.948Z,5.22
2023-04-27T05:35:58.377Z,6.30
2023-04-27T05:38:25.359Z,5.60
2023-04-27T05:40:52.058Z,6.40
2023-04-27T05:43:19.144Z,6.20
2023-04-27T05:45:45.475Z,6.03
2023-04-27T05:48:11.782Z,6.70
2023-04-27T05:50:38.333Z,5.55
2023-04-27T05:53:04.640Z,5.78
2023-04-27T05:55:31.007Z,5.68
2023-04-27T05:58:07.102Z,6.20
2023-04-27T06:00:34.617Z,5.80
2023-04-27T06:03:01.239Z,6.95
2023-04-27T06:05:27.828Z,7.65
2023-04-27T06:07:54.198Z,6.55
2023-04-27T06:10:20.474Z,7.53
2023-04-27T06:12:46.741Z,7.20
2023-04-27T06:15:13.092Z,5.80
2023-04-27T06:17:39.505Z,6.78
2023-04-27T06:20:05.795Z,7.18
2023-04-27T06:22:32.247Z,6.38
2023-04-27T06:24:58.716Z,6.30
2023-04-27T06:27:25.286Z,5.05
2023-04-27T06:29:51.700Z,6.03
2023-04-27T06:32:18.292Z,10.02
2023-04-27T06:34:44.634Z,8.02
2023-04-27T06:37:11.181Z,6.47
2023-04-27T06:39:37.500Z,5.53
2023-04-27T06:42:04.180Z,6.82
2023-04-27T06:44:30.522Z,5.63
2023-04-27T06:46:57.203Z,6.28
2023-04-27T06:49:23.559Z,6.28
2023-04-27T06:51:49.833Z,7.15
2023-04-27T06:54:16.109Z,6.63
2023-04-27T06:56:42.361Z,6.65
2023-04-27T06:59:08.919Z,7.82
2023-04-27T07:01:35.375Z,5.97
2023-04-27T07:04:01.842Z,7.15
2023-04-27T07:06:28.234Z,9.23
2023-04-27T07:08:54.756Z,7.57
2023-04-27T07:11:21.168Z,7.10
2023-04-27T07:13:47.484Z,6.63
2023-04-27T07:16:14.018Z,6.93
2023-04-27T07:18:42.093Z,10.20
2023-04-27T07:21:10.075Z,6.68
2023-04-27T07:23:36.613Z,8.85
2023-04-27T07:26:02.951Z,6.68
2023-04-27T07:28:29.340Z,6.68
2023-04-27T07:30:55.757Z,8.73
2023-04-27T07:33:22.385Z,7.53
2023-04-27T07:35:48.932Z,6.03
2023-04-27T07:38:15.500Z,6.95
2023-04-27T07:40:43.817Z,6.22
2023-04-27T07:43:11.166Z,7.22
2023-04-27T07:45:37.553Z,8.07
2023-04-27T07:48:03.923Z,5.88
2023-04-27T07:50:30.563Z,7.47
2023-04-27T07:52:57.028Z,7.18
2023-04-27T07:55:24.576Z,7.38
2023-04-27T07:57:51.070Z,8.05
2023-04-27T08:00:17.404Z,7.20
2023-04-27T08:02:44.393Z,7.53
2023-04-27T08:05:11.430Z,8.10
2023-04-27T08:07:42.778Z,7.18
2023-04-27T08:10:11.005Z,9.35
2023-04-27T08:12:37.642Z,8.55
2023-04-27T08:15:03.993Z,6.93
2023-04-27T08:17:30.502Z,6.57
2023-04-27T08:19:57.465Z,8.10
2023-04-27T08:22:24.079Z,7.35
2023-04-27T08:24:50.409Z,11.27
2023-04-27T08:27:16.731Z,9.27
2023-04-27T08:29:43.195Z,8.60
2023-04-27T08:32:09.707Z,6.53
2023-04-27T08:34:36.323Z,8.27
2023-04-27T08:37:03.226Z,7.13
2023-04-27T08:39:29.602Z,9.70
2023-04-27T08:41:56.240Z,8.32
2023-04-27T08:44:22.974Z,8.73
2023-04-27T08:46:49.618Z,8.15
2023-04-27T08:49:17.007Z,7.28
2023-04-27T08:51:43.761Z,8.52
2023-04-27T08:54:10.142Z,8.73
2023-04-27T08:56:36.554Z,7.82
2023-04-27T08:59:02.901Z,8.88
2023-04-27T09:01:29.306Z,8.20
2023-04-27T09:03:56.125Z,7.95
2023-04-27T09:06:23.012Z,7.35
2023-04-27T09:08:49.549Z,9.32
2023-04-27T09:11:15.866Z,8.50
2023-04-27T09:13:42.217Z,8.27
2023-04-27T09:16:08.524Z,8.85
2023-04-27T09:18:34.896Z,7.97
2023-04-27T09:21:01.409Z,8.75
2023-04-27T09:23:27.779Z,9.85
2023-04-27T09:25:54.316Z,8.27
2023-04-27T09:28:20.843Z,9.25
2023-04-27T09:30:48.316Z,8.02
2023-04-27T09:33:15.732Z,7.47
2023-04-27T09:35:42.048Z,8.98
2023-04-27T09:38:08.432Z,7.90
2023-04-27T09:40:35.325Z,10.23
2023-04-27T09:43:03.139Z,8.68
2023-04-27T09:45:29.560Z,10.15
2023-04-27T09:47:56.203Z,10.18
2023-04-27T09:50:23.005Z,9.80
2023-04-27T09:52:49.348Z,8.77
2023-04-27T09:55:15.912Z,9.10
2023-04-27T09:57:42.297Z,9.00
2023-04-27T10:00:08.885Z,10.27
2023-04-27T10:02:42.983Z,9.07
2023-04-27T10:05:18.963Z,12.80
2023-04-27T10:07:45.317Z,10.65
2023-04-27T10:10:11.738Z,9.57
2023-04-27T10:12:38.180Z,11.52
2023-04-27T10:15:04.526Z,12.13
2023-04-27T10:17:31.089Z,13.20
2023-04-27T10:19:58.564Z,16.23
2023-04-27T10:22:25.069Z,12.40
2023-04-27T10:24:51.393Z,19.98
2023-04-27T10:27:17.688Z,19.05
2023-04-27T10:29:44.429Z,20.75
2023-04-27T10:32:10.879Z,21.98
2023-04-27T10:34:37.305Z,23.00
2023-04-27T10:37:03.651Z,18.38
2023-04-27T10:39:43.722Z,21.15
2023-04-27T10:42:13.831Z,24.83
2023-04-27T10:44:40.673Z,27.23
2023-04-27T10:47:07.114Z,27.00
2023-04-27T10:49:33.407Z,21.48
2023-04-27T10:51:59.888Z,25.75
2023-04-27T10:54:26.277Z,24.35
2023-04-27T10:56:52.878Z,21.42
2023-04-27T10:59:19.292Z,22.88
2023-04-27T11:01:45.774Z,30.13
2023-04-27T11:04:12.289Z,20.95
2023-04-27T11:06:39.020Z,28.42
2023-04-27T11:09:05.622Z,24.00
2023-04-27T11:11:32.395Z,25.30
2023-04-27T11:13:58.773Z,24.48
2023-04-27T11:16:25.426Z,25.88
2023-04-27T11:18:51.838Z,25.15
2023-04-27T11:21:18.420Z,26.55
2023-04-27T11:23:44.931Z,35.10
2023-04-27T11:26:11.443Z,27.52
2023-04-27T11:28:37.876Z,26.33
2023-04-27T11:31:04.306Z,21.38
2023-04-27T11:33:31.517Z,24.33
2023-04-27T11:35:58.249Z,28.33
2023-04-27T11:38:24.642Z,25.77
2023-04-27T11:40:51.176Z,23.77
2023-04-27T11:43:17.458Z,21.65
2023-04-27T11:45:43.939Z,20.42
2023-04-27T11:48:10.327Z,19.88
2023-04-27T11:50:36.919Z,21.85
2023-04-27T11:53:03.521Z,23.83
2023-04-27T11:55:29.919Z,22.25
2023-04-27T11:57:56.532Z,21.65
2023-04-27T12:00:23.173Z,27.60
2023-04-27T12:02:49.726Z,29.20
2023-04-27T12:05:16.368Z,26.73
2023-04-27T12:07:42.842Z,26.50
2023-04-27T12:10:09.456Z,37.30
2023-04-27T12:12:37.433Z,29.65
2023-04-27T12:15:03.683Z,31.30
2023-04-27T12:17:30.110Z,31.85
2023-04-27T12:19:56.741Z,34.80
2023-04-27T12:22:23.157Z,35.33
2023-04-27T12:24:49.453Z,32.53
2023-04-27T12:27:15.796Z,31.13
2023-04-27T12:29:42.387Z,30.10
2023-04-27T12:32:09.100Z,32.60
2023-04-27T12:34:35.780Z,30.52
2023-04-27T12:37:02.233Z,30.58
2023-04-27T12:39:28.817Z,36.67
2023-04-27T12:41:55.194Z,29.20
2023-04-27T12:44:21.714Z,28.67
2023-04-27T12:46:48.228Z,38.10
2023-04-27T12:49:14.888Z,31.90
2023-04-27T12:51:41.402Z,30.42
2023-04-27T12:54:07.825Z,26.75
2023-04-27T12:56:34.186Z,26.77
2023-04-27T12:59:01.202Z,25.35
2023-04-27T13:01:27.911Z,27.08
2023-04-27T13:03:54.433Z,22.48
2023-04-27T13:06:21.161Z,27.23
2023-04-27T13:08:47.447Z,28.17
2023-04-27T13:11:13.739Z,31.85
2023-04-27T13:13:40.219Z,28.80
2023-04-27T13:16:06.695Z,32.63
2023-04-27T13:18:35.019Z,31.15
2023-04-27T13:21:02.304Z,33.35
2023-04-27T13:23:28.705Z,31.35
2023-04-27T13:25:55.323Z,32.05
2023-04-27T13:28:21.725Z,32.55
2023-04-27T13:30:48.116Z,31.88
2023-04-27T13:33:22.507Z,33.83
2023-04-27T13:35:50.025Z,34.15
2023-04-27T13:38:16.475Z,37.10
2023-04-27T13:40:43.250Z,33.97
2023-04-27T13:43:09.600Z,35.90
2023-04-27T13:45:36.012Z,30.20
2023-04-27T13:48:02.565Z,26.48
2023-04-27T13:50:29.144Z,31.73
2023-04-27T13:52:55.686Z,35.35
2023-04-27T13:55:22.114Z,29.55
2023-04-27T13:57:48.933Z,26.95
2023-04-27T14:00:15.519Z,27.17
2023-04-27T14:02:42.080Z,28.98
2023-04-27T14:05:08.736Z,25.38
2023-04-27T14:07:35.174Z,29.02
2023-04-27T14:10:01.508Z,24.95
2023-04-27T14:12:28.176Z,26.00
2023-04-27T14:14:55.459Z,23.20
2023-04-27T14:17:23.230Z,29.63
2023-04-27T14:19:49.847Z,24.10
2023-04-27T14:22:16.342Z,25.38
2023-04-27T14:24:42.736Z,23.27
2023-04-27T14:27:09.181Z,23.50
2023-04-27T14:29:35.583Z,24.92
2023-04-27T14:32:02.054Z,26.52
2023-04-27T14:34:28.629Z,22.17
2023-04-27T14:36:55.180Z,25.17
2023-04-27T14:39:21.698Z,22.55
2023-04-27T14:41:48.040Z,19.50
2023-04-27T14:44:14.590Z,19.85
2023-04-27T14:46:41.096Z,23.77
2023-04-27T14:49:07.603Z,22.55
2023-04-27T14:51:34.233Z,22.25
2023-04-27T14:54:00.660Z,22.58
2023-04-27T14:56:26.974Z,24.00
2023-04-27T14:58:55.640Z,20.15
2023-04-27T15:01:22.326Z,21.58
2023-04-27T15:03:48.949Z,20.67
2023-04-27T15:06:15.596Z,21.48
2023-04-27T15:08:41.958Z,21.90
2023-04-27T15:11:08.388Z,20.60
2023-04-27T15:13:34.802Z,22.23
2023-04-27T15:16:01.322Z,20.25
2023-04-27T15:18:27.884Z,21.20
2023-04-27T15:20:54.246Z,21.85
2023-04-27T15:23:20.579Z,21.52
2023-04-27T15:25:47.527Z,24.00
2023-04-27T15:28:13.968Z,19.75
2023-04-27T15:30:40.432Z,19.20
2023-04-27T15:33:08.160Z,19.02
2023-04-27T15:35:37.358Z,18.48
2023-04-27T15:38:03.726Z,20.00
2023-04-27T15:40:30.048Z,20.58
2023-04-27T15:42:56.394Z,17.98
2023-04-27T15:45:22.781Z,17.92
2023-04-27T15:47:49.166Z,18.60
2023-04-27T15:50:17.037Z,19.42
2023-04-27T15:52:44.341Z,15.15
2023-04-27T15:55:10.751Z,14.15
2023-04-27T15:57:37.913Z,19.48
2023-04-27T16:00:04.232Z,15.15
2023-04-27T16:02:30.777Z,16.90
2023-04-27T16:04:57.234Z,17.25
2023-04-27T16:07:23.574Z,17.40
2023-04-27T16:09:51.076Z,17.10
2023-04-27T16:12:17.373Z,17.80
2023-04-27T16:14:43.707Z,15.70
2023-04-27T16:17:10.520Z,16.70
2023-04-27T16:19:38.642Z,18.67
2023-04-27T16:22:05.037Z,16.42
2023-04-27T16:24:31.375Z,13.68
2023-04-27T16:26:59.721Z,14.52
2023-04-27T16:29:26.067Z,16.10
2023-04-27T16:31:52.825Z,14.25
2023-04-27T16:34:19.425Z,50.00
2023-04-27T16:36:45.951Z,68.57
2023-04-27T16:39:12.694Z,101.72
2023-04-27T16:41:39.159Z,107.68
2023-04-27T16:44:05.539Z,111.50
2023-04-27T16:46:31.857Z,120.72
2023-04-27T16:48:58.240Z,118.10
2023-04-27T16:51:24.628Z,121.30
2023-04-27T16:53:51.481Z,115.35
2023-04-27T16:56:17.893Z,114.00
2023-04-27T16:58:44.189Z,102.50
2023-04-27T17:01:10.646Z,111.35
2023-04-27T17:03:37.123Z,108.65
2023-04-27T17:06:03.606Z,107.30
2023-04-27T17:08:30.791Z,102.70
2023-04-27T17:10:57.811Z,107.75
2023-04-27T17:13:24.207Z,109.28
2023-04-27T17:15:51.307Z,83.18
2023-04-27T17:18:17.765Z,66.57
2023-04-27T17:20:44.238Z,59.08
2023-04-27T17:23:10.559Z,49.58
2023-04-27T17:25:37.567Z,55.25
2023-04-27T17:28:03.956Z,51.00
2023-04-27T17:30:30.770Z,464.42
2023-04-27T17:32:57.751Z,407.70
2023-04-27T17:35:24.260Z,312.30
2023-04-27T17:37:50.905Z,255.93
2023-04-27T17:40:17.312Z,249.27
2023-04-27T17:42:43.812Z,230.50
2023-04-27T17:45:10.198Z,391.75
2023-04-27T17:47:36.523Z,402.73
2023-04-27T17:50:03.368Z,349.80
2023-04-27T17:52:29.787Z,225.32
2023-04-27T17:54:56.429Z,266.15
2023-04-27T17:57:23.103Z,210.00
2023-04-27T17:59:49.717Z,163.65
2023-04-27T18:02:16.383Z,65.00
2023-04-27T18:04:42.827Z,49.00
2023-04-27T18:07:09.204Z,64.10
2023-04-27T18:09:35.518Z,41.22
2023-04-27T18:12:03.059Z,49.42
2023-04-27T18:14:29.344Z,116.20
2023-04-27T18:16:55.817Z,77.80
2023-04-27T18:19:22.218Z,49.70
2023-04-27T18:21:48.574Z,43.20
2023-04-27T18:24:15.242Z,47.67
2023-04-27T18:26:41.624Z,48.88
2023-04-27T18:29:08.199Z,51.88
2023-04-27T18:31:34.880Z,50.22
2023-04-27T18:34:01.340Z,58.15
2023-04-27T18:36:28.136Z,55.28
2023-04-27T18:38:54.535Z,54.97
2023-04-27T18:41:20.959Z,60.42
2023-04-27T18:43:47.484Z,62.20
2023-04-27T18:46:13.866Z,60.45
2023-04-27T18:48:40.205Z,59.88
2023-04-27T18:51:06.781Z,36.85
2023-04-27T18:53:33.140Z,38.80
2023-04-27T18:55:59.533Z,36.72
2023-04-27T18:58:26.072Z,53.85
2023-04-27T19:00:53.035Z,50.88
2023-04-27T19:03:20.073Z,51.25
2023-04-27T19:05:46.549Z,63.67
2023-04-27T19:08:13.073Z,60.60
2023-04-27T19:10:39.432Z,58.00
2023-04-27T19:13:05.740Z,54.55
2023-04-27T19:15:32.508Z,51.00
2023-04-27T19:18:09.367Z,46.22
2023-04-27T19:20:37.210Z,45.72
2023-04-27T19:23:05.309Z,49.50
2023-04-27T19:25:31.706Z,82.82
2023-04-27T19:27:58.019Z,127.85
2023-04-27T19:30:27.917Z,370.70
2023-04-27T19:32:54.215Z,310.13
2023-04-27T19:35:20.981Z,279.60
2023-04-27T19:37:47.320Z,243.05
2023-04-27T19:40:13.802Z,220.60
2023-04-27T19:42:40.576Z,169.68
2023-04-27T19:45:07.003Z,173.23
2023-04-27T19:47:33.329Z,162.90
2023-04-27T19:49:59.840Z,155.32
2023-04-27T19:52:26.223Z,181.80
2023-04-27T19:54:52.658Z,240.43
2023-04-27T19:57:18.995Z,229.48
2023-04-27T20:02:29.463Z,412.27
2023-04-27T20:04:56.893Z,372.20
2023-04-27T20:07:23.623Z,348.67
2023-04-27T20:09:50.136Z,331.38
2023-04-27T20:12:40.226Z,306.55
2023-04-27T20:15:02.908Z,289.88
2023-04-27T20:17:29.272Z,269.58
2023-04-27T20:19:55.680Z,209.77
2023-04-27T20:22:22.195Z,71.15
2023-04-27T20:24:48.750Z,175.15
2023-04-27T20:27:15.432Z,411.40
2023-04-27T20:29:41.984Z,364.55
2023-04-27T20:32:08.436Z,340.13
2023-04-27T20:34:36.314Z,317.23
2023-04-27T20:37:02.615Z,300.05
2023-04-27T20:39:28.959Z,288.27
2023-04-27T20:41:56.144Z,265.98
2023-04-27T20:44:22.820Z,291.42
2023-04-27T20:46:49.172Z,449.67
2023-04-27T20:49:24.714Z,413.70
2023-04-27T20:51:58.301Z,384.23
2023-04-27T20:54:24.758Z,296.02
2023-04-27T20:56:51.191Z,298.52
2023-04-27T20:59:17.596Z,279.30
2023-04-27T21:01:44.043Z,257.90
2023-04-27T21:04:10.659Z,249.63
2023-04-27T21:06:37.110Z,236.77
2023-04-27T21:09:03.502Z,228.88
2023-04-27T21:11:29.990Z,367.42
2023-04-27T21:13:56.657Z,390.42
2023-04-27T21:16:23.317Z,352.55
2023-04-27T21:18:49.634Z,336.98
2023-04-27T21:21:16.042Z,312.38
2023-04-27T21:23:42.781Z,300.10
2023-04-27T21:26:09.172Z,282.20
2023-04-27T21:28:35.668Z,263.60
2023-04-27T21:31:02.247Z,248.75
2023-04-27T21:33:28.616Z,241.88
2023-04-27T21:35:55.231Z,221.43
2023-04-27T21:38:21.558Z,212.88
2023-04-27T21:40:48.001Z,213.10
2023-04-27T21:43:14.360Z,314.10
2023-04-27T21:45:40.721Z,302.92
2023-04-27T21:48:07.341Z,291.70
2023-04-27T21:50:33.920Z,283.95
2023-04-27T21:53:00.616Z,268.77
2023-04-27T21:55:27.340Z,251.40
2023-04-27T21:57:53.796Z,238.75
2023-04-27T22:00:20.212Z,224.90
2023-04-27T22:02:47.675Z,217.75
2023-04-27T22:05:14.918Z,212.13
2023-04-27T22:07:41.400Z,364.67
2023-04-27T22:10:07.901Z,389.20
2023-04-27T22:12:34.720Z,348.35
2023-04-27T22:15:01.600Z,325.58
2023-04-27T22:17:29.923Z,308.90
2023-04-27T22:19:57.355Z,294.10
2023-04-27T22:22:23.944Z,283.17
2023-04-27T22:24:50.693Z,267.50
2023-04-27T22:27:17.640Z,278.38
2023-04-27T22:29:44.452Z,295.92
2023-04-27T22:32:10.871Z,331.33
2023-04-27T22:34:37.492Z,358.98
2023-04-27T22:37:04.151Z,347.17
2023-04-27T22:39:30.521Z,334.08
2023-04-27T22:41:58.793Z,327.35
2023-04-27T22:44:25.122Z,324.73
2023-04-27T22:46:51.531Z,321.67
2023-04-27T22:49:18.938Z,314.67
2023-04-27T22:51:45.521Z,309.85
2023-04-27T22:54:12.303Z,306.73
2023-04-27T22:56:39.981Z,296.05
2023-04-27T22:59:06.333Z,299.92
2023-04-27T23:01:32.771Z,292.05
2023-04-27T23:03:59.476Z,293.42
2023-04-27T23:06:25.978Z,282.35
2023-04-27T23:08:52.418Z,283.35
2023-04-27T23:11:19.048Z,281.90
2023-04-27T23:13:45.390Z,283.95
2023-04-27T23:16:12.022Z,273.17
2023-04-27T23:18:38.721Z,266.15
2023-04-27T23:21:05.113Z,270.17
2023-04-27T23:23:32.240Z,262.60
2023-04-27T23:25:58.653Z,254.65
2023-04-27T23:28:25.032Z,248.02
2023-04-27T23:30:51.548Z,248.40
2023-04-27T23:33:17.973Z,240.27
2023-04-27T23:35:44.327Z,242.77
2023-04-27T23:38:10.852Z,234.50
2023-04-27T23:40:37.517Z,234.27
2023-04-27T23:43:04.164Z,220.98
2023-04-27T23:45:30.572Z,225.05
2023-04-27T23:47:59.438Z,217.82
2023-04-27T23:50:26.968Z,215.25
2023-04-27T23:52:53.317Z,214.40
2023-04-27T23:55:19.684Z,204.95
2023-04-27T23:57:46.227Z,206.40
